sensor_id;sensor_type;location;lat;lon;timestamp;pressure;altitude;pressure_sealevel;temperature;humidity
63582;BME280;49727;51.078;17.066;2023-05-01T00:05:01;100716.88;;;4.52;61.23
63582;BME280;49727;51.078;17.066;2023-05-01T00:20:01;100715.56;;;4.47;61.47
63582;BME280;49727;51.078;17.066;2023-05-01T00:35:04;100699.00;;;4.33;62.18
63582;BME280;49727;51.078;17.066;2023-05-01T00:50:05;100692.97;;;4.20;62.63
63582;BME280;49727;51.078;17.066;2023-05-01T01:05:06;100685.03;;;4.09;62.99
63582;BME280;49727;51.078;17.066;2023-05-01T01:20:26;100688.09;;;3.91;63.62
63582;BME280;49727;51.078;17.066;2023-05-01T01:35:30;100677.75;;;3.77;64.44
63582;BME280;49727;51.078;17.066;2023-05-01T01:50:32;100673.81;;;3.58;64.95
63582;BME280;49727;51.078;17.066;2023-05-01T02:05:34;100674.69;;;3.34;65.09
63582;BME280;49727;51.078;17.066;2023-05-01T02:20:36;100656.63;;;3.17;65.55
63582;BME280;49727;51.078;17.066;2023-05-01T02:35:43;100646.50;;;2.99;66.20
63582;BME280;49727;51.078;17.066;2023-05-01T02:50:46;100641.56;;;2.82;66.86
63582;BME280;49727;51.078;17.066;2023-05-01T03:05:49;100642.66;;;2.66;67.28
63582;BME280;49727;51.078;17.066;2023-05-01T03:20:54;100641.94;;;2.51;67.47
63582;BME280;49727;51.078;17.066;2023-05-01T03:36:00;100623.13;;;2.32;68.31
63582;BME280;49727;51.078;17.066;2023-05-01T03:51:02;100632.25;;;2.39;68.59
63582;BME280;49727;51.078;17.066;2023-05-01T04:06:03;100625.84;;;2.56;69.23
63582;BME280;49727;51.078;17.066;2023-05-01T04:21:03;100617.56;;;2.86;69.66
63582;BME280;49727;51.078;17.066;2023-05-01T04:36:04;100620.28;;;3.22;69.61
63582;BME280;49727;51.078;17.066;2023-05-01T04:51:04;100620.38;;;3.80;69.74
63582;BME280;49727;51.078;17.066;2023-05-01T05:06:05;100621.31;;;4.49;69.68
63582;BME280;49727;51.078;17.066;2023-05-01T05:21:05;100622.97;;;5.28;69.06
63582;BME280;49727;51.078;17.066;2023-05-01T05:36:05;100599.56;;;6.19;68.39
63582;BME280;49727;51.078;17.066;2023-05-01T05:51:06;100599.16;;;7.15;67.19
63582;BME280;49727;51.078;17.066;2023-05-01T06:06:06;100607.97;;;8.31;66.04
63582;BME280;49727;51.078;17.066;2023-05-01T06:21:07;100600.91;;;9.41;63.79
63582;BME280;49727;51.078;17.066;2023-05-01T06:36:07;100591.31;;;10.45;61.18
63582;BME280;49727;51.078;17.066;2023-05-01T06:51:07;100582.34;;;11.06;56.57
63582;BME280;49727;51.078;17.066;2023-05-01T07:06:08;100568.22;;;11.46;52.04
63582;BME280;49727;51.078;17.066;2023-05-01T07:21:08;100557.53;;;11.71;50.17
63582;BME280;49727;51.078;17.066;2023-05-01T07:36:12;100559.19;;;11.89;47.87
63582;BME280;49727;51.078;17.066;2023-05-01T07:51:13;100543.00;;;12.46;45.14
63582;BME280;49727;51.078;17.066;2023-05-01T08:06:13;100550.75;;;13.42;42.20
63582;BME280;49727;51.078;17.066;2023-05-01T08:21:14;100539.72;;;13.83;39.25
63582;BME280;49727;51.078;17.066;2023-05-01T08:36:14;100530.22;;;14.77;37.98
63582;BME280;49727;51.078;17.066;2023-05-01T08:51:15;100505.28;;;15.48;35.10
63582;BME280;49727;51.078;17.066;2023-05-01T09:06:19;100497.09;;;16.27;32.25
63582;BME280;49727;51.078;17.066;2023-05-01T09:21:20;100468.13;;;17.44;31.98
63582;BME280;49727;51.078;17.066;2023-05-01T09:36:21;100464.78;;;19.55;27.56
63582;BME280;49727;51.078;17.066;2023-05-01T09:51:23;100453.31;;;19.78;28.27
63582;BME280;49727;51.078;17.066;2023-05-01T10:06:27;100451.47;;;19.10;28.51
63582;BME280;49727;51.078;17.066;2023-05-01T10:21:29;100403.50;;;19.31;28.62
63582;BME280;49727;51.078;17.066;2023-05-01T10:36:45;100412.56;;;19.61;25.04
63582;BME280;49727;51.078;17.066;2023-05-01T10:52:00;100395.09;;;20.43;23.65
63582;BME280;49727;51.078;17.066;2023-05-01T11:22:11;100356.34;;;20.31;24.28
63582;BME280;49727;51.078;17.066;2023-05-01T11:37:12;100321.16;;;21.09;23.53
63582;BME280;49727;51.078;17.066;2023-05-01T11:52:13;100279.75;;;21.49;22.36
63582;BME280;49727;51.078;17.066;2023-05-01T12:07:22;100267.25;;;21.48;21.67
63582;BME280;49727;51.078;17.066;2023-05-01T12:22:23;100254.31;;;21.79;20.67
63582;BME280;49727;51.078;17.066;2023-05-01T12:37:30;100225.38;;;21.68;20.84
63582;BME280;49727;51.078;17.066;2023-05-01T12:52:31;100214.22;;;21.11;21.09
63582;BME280;49727;51.078;17.066;2023-05-01T13:07:31;100175.66;;;21.33;22.29
63582;BME280;49727;51.078;17.066;2023-05-01T13:37:34;100144.56;;;21.82;23.38
63582;BME280;49727;51.078;17.066;2023-05-01T13:52:40;100128.03;;;21.66;23.17
63582;BME280;49727;51.078;17.066;2023-05-01T14:07:52;100102.63;;;21.89;23.51
63582;BME280;49727;51.078;17.066;2023-05-01T14:22:54;100081.63;;;21.34;23.69
63582;BME280;49727;51.078;17.066;2023-05-01T14:37:54;100050.91;;;21.11;23.97
63582;BME280;49727;51.078;17.066;2023-05-01T14:52:57;100039.75;;;20.78;24.35
63582;BME280;49727;51.078;17.066;2023-05-01T15:07:57;100025.03;;;20.86;24.63
63582;BME280;49727;51.078;17.066;2023-05-01T15:23:01;100011.59;;;20.51;25.32
63582;BME280;49727;51.078;17.066;2023-05-01T15:38:01;100009.31;;;20.19;26.25
63582;BME280;49727;51.078;17.066;2023-05-01T15:53:02;99984.47;;;19.81;27.73
63582;BME280;49727;51.078;17.066;2023-05-01T16:08:04;99976.69;;;19.49;29.23
63582;BME280;49727;51.078;17.066;2023-05-01T16:23:04;99966.34;;;19.34;30.01
63582;BME280;49727;51.078;17.066;2023-05-01T16:38:05;99958.91;;;19.06;31.25
63582;BME280;49727;51.078;17.066;2023-05-01T16:53:05;99959.38;;;18.72;32.59
63582;BME280;49727;51.078;17.066;2023-05-01T17:08:06;99954.59;;;18.44;34.45
63582;BME280;49727;51.078;17.066;2023-05-01T17:23:06;99944.06;;;18.05;36.25
63582;BME280;49727;51.078;17.066;2023-05-01T17:38:06;99949.69;;;17.60;38.68
63582;BME280;49727;51.078;17.066;2023-05-01T17:53:07;99941.28;;;17.06;40.37
63582;BME280;49727;51.078;17.066;2023-05-01T18:08:08;99941.34;;;16.61;42.19
63582;BME280;49727;51.078;17.066;2023-05-01T18:23:08;99949.06;;;16.50;43.23
63582;BME280;49727;51.078;17.066;2023-05-01T18:38:09;99955.78;;;16.28;44.23
63582;BME280;49727;51.078;17.066;2023-05-01T18:53:09;99960.03;;;15.97;45.84
63582;BME280;49727;51.078;17.066;2023-05-01T19:08:10;99965.84;;;15.67;46.93
63582;BME280;49727;51.078;17.066;2023-05-01T19:23:10;99970.00;;;15.16;48.62
63582;BME280;49727;51.078;17.066;2023-05-01T19:38:11;99964.16;;;14.72;50.29
63582;BME280;49727;51.078;17.066;2023-05-01T19:53:11;99966.72;;;14.32;51.47
63582;BME280;49727;51.078;17.066;2023-05-01T20:08:11;99962.72;;;14.14;51.57
63582;BME280;49727;51.078;17.066;2023-05-01T20:23:13;99962.69;;;14.08;51.24
63582;BME280;49727;51.078;17.066;2023-05-01T20:38:14;99963.06;;;13.98;51.19
63582;BME280;49727;51.078;17.066;2023-05-01T20:53:14;99967.47;;;13.77;51.41
63582;BME280;49727;51.078;17.066;2023-05-01T21:08:15;99965.16;;;13.39;51.92
63582;BME280;49727;51.078;17.066;2023-05-01T21:23:16;99969.09;;;13.21;53.05
63582;BME280;49727;51.078;17.066;2023-05-01T21:38:16;99960.97;;;12.86;53.67
63582;BME280;49727;51.078;17.066;2023-05-01T21:53:17;99965.53;;;12.49;54.99
63582;BME280;49727;51.078;17.066;2023-05-01T22:08:17;99961.97;;;12.27;55.33
63582;BME280;49727;51.078;17.066;2023-05-01T22:23:18;99964.22;;;12.09;57.35
63582;BME280;49727;51.078;17.066;2023-05-01T22:38:19;99943.66;;;11.79;57.74
63582;BME280;49727;51.078;17.066;2023-05-01T22:53:19;99936.28;;;11.51;58.62
63582;BME280;49727;51.078;17.066;2023-05-01T23:08:19;99941.03;;;11.26;59.15
63582;BME280;49727;51.078;17.066;2023-05-01T23:23:20;99944.56;;;11.04;59.93
63582;BME280;49727;51.078;17.066;2023-05-01T23:38:21;99934.16;;;10.94;60.80
63582;BME280;49727;51.078;17.066;2023-05-01T23:53:21;99935.91;;;10.78;60.85
